ICAO code: LHPR | IATA code: QGY | SITA: QGYAPXH | AFTN: LHPRZPZX

Időjárási adatok

METAR LHPR 302045Z AUTO 31010KT 9999 -SHRA OVC071 //////TCU 14/12 Q1010=
TAF LHPR 302000Z NIL=
Eső, nem ónos, gyenge
2020-09-30 20:40:00 UTC
Hőmérséklet
13.5 °C
 
Harmatpont
11.5 °C
 
Rel. páratartalom
88%
 
QNH
1010.2 hPa
 
Szélsebesség
4.5 m/s
Max
6.3 m/s
Szélirány
310°
 
Csapadék (1 óra)
0.2 mm
 
Látótávolság
14268 m
 
RVR
>1500 m RWY30
 
1. felhőréteg mennyisége
8 octa
 
1. felhőréteg alapja
2120 m